sensor_id;sensor_type;location;lat;lon;timestamp;temperature;humidity
46732;DHT22;32477;51.474;5.696;2023-05-09T00:00:12;15.00;99.90
46732;DHT22;32477;51.474;5.696;2023-05-09T00:02:38;15.00;99.90
46732;DHT22;32477;51.474;5.696;2023-05-09T00:05:05;15.10;99.90
46732;DHT22;32477;51.474;5.696;2023-05-09T00:07:32;15.00;99.90
46732;DHT22;32477;51.474;5.696;2023-05-09T00:09:59;15.10;99.90
46732;DHT22;32477;51.474;5.696;2023-05-09T00:12:28;15.10;99.90
46732;DHT22;32477;51.474;5.696;2023-05-09T00:14:54;15.10;99.90
46732;DHT22;32477;51.474;5.696;2023-05-09T00:17:22;15.10;99.90
46732;DHT22;32477;51.474;5.696;2023-05-09T00:19:48;15.10;99.90
46732;DHT22;32477;51.474;5.696;2023-05-09T00:22:15;15.10;99.90
46732;DHT22;32477;51.474;5.696;2023-05-09T00:24:42;15.10;99.90
46732;DHT22;32477;51.474;5.696;2023-05-09T00:27:07;15.10;99.90
46732;DHT22;32477;51.474;5.696;2023-05-09T00:29:34;15.10;99.90
46732;DHT22;32477;51.474;5.696;2023-05-09T00:31:59;15.10;99.90
46732;DHT22;32477;51.474;5.696;2023-05-09T00:34:25;15.00;99.90
46732;DHT22;32477;51.474;5.696;2023-05-09T00:36:51;15.00;99.90
46732;DHT22;32477;51.474;5.696;2023-05-09T00:39:16;15.00;99.90
46732;DHT22;32477;51.474;5.696;2023-05-09T00:41:42;14.90;99.90
46732;DHT22;32477;51.474;5.696;2023-05-09T00:44:08;14.90;99.90
46732;DHT22;32477;51.474;5.696;2023-05-09T00:46:33;14.80;99.90
46732;DHT22;32477;51.474;5.696;2023-05-09T00:48:59;14.90;99.90
46732;DHT22;32477;51.474;5.696;2023-05-09T00:51:27;14.80;99.90
46732;DHT22;32477;51.474;5.696;2023-05-09T00:53:53;14.90;99.90
46732;DHT22;32477;51.474;5.696;2023-05-09T00:56:18;14.80;99.90
46732;DHT22;32477;51.474;5.696;2023-05-09T00:58:44;14.80;99.90
46732;DHT22;32477;51.474;5.696;2023-05-09T01:01:10;14.80;99.90
46732;DHT22;32477;51.474;5.696;2023-05-09T01:03:37;14.70;99.90
46732;DHT22;32477;51.474;5.696;2023-05-09T01:06:50;14.70;99.90
46732;DHT22;32477;51.474;5.696;2023-05-09T01:11:50;14.60;99.90
46732;DHT22;32477;51.474;5.696;2023-05-09T01:14:31;14.60;99.90
46732;DHT22;32477;51.474;5.696;2023-05-09T01:17:08;14.60;99.90
46732;DHT22;32477;51.474;5.696;2023-05-09T01:20:07;14.50;99.90
46732;DHT22;32477;51.474;5.696;2023-05-09T01:22:44;14.50;99.90
46732;DHT22;32477;51.474;5.696;2023-05-09T01:28:22;14.40;99.90
46732;DHT22;32477;51.474;5.696;2023-05-09T01:30:55;14.40;99.90
46732;DHT22;32477;51.474;5.696;2023-05-09T01:33:23;14.40;99.90
46732;DHT22;32477;51.474;5.696;2023-05-09T01:35:56;14.40;99.90
46732;DHT22;32477;51.474;5.696;2023-05-09T01:38:24;14.40;99.90
46732;DHT22;32477;51.474;5.696;2023-05-09T01:40:53;14.40;99.90
46732;DHT22;32477;51.474;5.696;2023-05-09T01:43:20;14.40;99.90
46732;DHT22;32477;51.474;5.696;2023-05-09T01:45:48;14.40;99.90
46732;DHT22;32477;51.474;5.696;2023-05-09T01:48:14;14.40;99.90
46732;DHT22;32477;51.474;5.696;2023-05-09T01:50:42;14.40;99.90
46732;DHT22;32477;51.474;5.696;2023-05-09T01:53:10;14.40;99.90
46732;DHT22;32477;51.474;5.696;2023-05-09T01:55:38;14.40;99.90
46732;DHT22;32477;51.474;5.696;2023-05-09T01:58:05;14.40;99.90
46732;DHT22;32477;51.474;5.696;2023-05-09T02:00:32;14.40;99.90
46732;DHT22;32477;51.474;5.696;2023-05-09T02:02:58;14.40;99.90
46732;DHT22;32477;51.474;5.696;2023-05-09T02:05:26;14.40;99.90
46732;DHT22;32477;51.474;5.696;2023-05-09T02:07:54;14.30;99.90
46732;DHT22;32477;51.474;5.696;2023-05-09T02:10:25;14.40;99.90
46732;DHT22;32477;51.474;5.696;2023-05-09T02:12:51;14.40;99.90
46732;DHT22;32477;51.474;5.696;2023-05-09T02:15:17;14.40;99.90
46732;DHT22;32477;51.474;5.696;2023-05-09T02:17:43;14.40;99.90
46732;DHT22;32477;51.474;5.696;2023-05-09T02:20:09;14.50;99.90
46732;DHT22;32477;51.474;5.696;2023-05-09T02:22:36;14.40;99.90
46732;DHT22;32477;51.474;5.696;2023-05-09T02:25:05;14.40;99.90
46732;DHT22;32477;51.474;5.696;2023-05-09T02:27:33;14.40;99.90
46732;DHT22;32477;51.474;5.696;2023-05-09T02:30:02;14.40;99.90
46732;DHT22;32477;51.474;5.696;2023-05-09T02:32:30;14.40;99.90
46732;DHT22;32477;51.474;5.696;2023-05-09T02:34:58;14.40;99.90
46732;DHT22;32477;51.474;5.696;2023-05-09T02:37:25;14.50;99.90
46732;DHT22;32477;51.474;5.696;2023-05-09T02:39:51;14.40;99.90
46732;DHT22;32477;51.474;5.696;2023-05-09T02:42:21;14.40;99.90
46732;DHT22;32477;51.474;5.696;2023-05-09T02:44:53;14.50;99.90
46732;DHT22;32477;51.474;5.696;2023-05-09T02:47:19;14.50;99.90
46732;DHT22;32477;51.474;5.696;2023-05-09T02:49:45;14.50;99.90
46732;DHT22;32477;51.474;5.696;2023-05-09T02:52:10;14.50;99.90
46732;DHT22;32477;51.474;5.696;2023-05-09T02:54:37;14.50;99.90
46732;DHT22;32477;51.474;5.696;2023-05-09T02:57:03;14.50;99.90
46732;DHT22;32477;51.474;5.696;2023-05-09T02:59:29;14.50;99.90
46732;DHT22;32477;51.474;5.696;2023-05-09T03:01:55;14.50;99.90
46732;DHT22;32477;51.474;5.696;2023-05-09T03:04:21;14.50;99.90
46732;DHT22;32477;51.474;5.696;2023-05-09T03:06:47;14.50;99.90
46732;DHT22;32477;51.474;5.696;2023-05-09T03:09:12;14.50;99.90
46732;DHT22;32477;51.474;5.696;2023-05-09T03:11:38;14.50;99.90
46732;DHT22;32477;51.474;5.696;2023-05-09T03:14:04;14.50;99.90
46732;DHT22;32477;51.474;5.696;2023-05-09T03:16:30;14.40;99.90
46732;DHT22;32477;51.474;5.696;2023-05-09T03:18:56;14.40;99.90
46732;DHT22;32477;51.474;5.696;2023-05-09T03:21:21;14.40;99.90
46732;DHT22;32477;51.474;5.696;2023-05-09T03:23:47;14.30;99.90
46732;DHT22;32477;51.474;5.696;2023-05-09T03:26:13;14.30;99.90
46732;DHT22;32477;51.474;5.696;2023-05-09T03:28:39;14.30;99.90
46732;DHT22;32477;51.474;5.696;2023-05-09T03:31:05;14.30;99.90
46732;DHT22;32477;51.474;5.696;2023-05-09T03:33:31;14.20;99.90
46732;DHT22;32477;51.474;5.696;2023-05-09T03:35:56;14.20;99.90
46732;DHT22;32477;51.474;5.696;2023-05-09T03:38:22;14.30;99.90
46732;DHT22;32477;51.474;5.696;2023-05-09T03:40:51;14.20;99.90
46732;DHT22;32477;51.474;5.696;2023-05-09T03:43:18;14.30;99.90
46732;DHT22;32477;51.474;5.696;2023-05-09T03:45:44;14.30;99.90
46732;DHT22;32477;51.474;5.696;2023-05-09T03:48:09;14.40;99.90
46732;DHT22;32477;51.474;5.696;2023-05-09T03:50:35;14.40;99.90
46732;DHT22;32477;51.474;5.696;2023-05-09T03:53:01;14.50;99.90
46732;DHT22;32477;51.474;5.696;2023-05-09T03:55:27;14.50;99.90
46732;DHT22;32477;51.474;5.696;2023-05-09T03:57:53;14.50;99.90
46732;DHT22;32477;51.474;5.696;2023-05-09T04:00:19;14.50;99.90
46732;DHT22;32477;51.474;5.696;2023-05-09T04:02:49;14.50;99.90
46732;DHT22;32477;51.474;5.696;2023-05-09T04:05:15;14.60;99.90
46732;DHT22;32477;51.474;5.696;2023-05-09T04:07:41;14.60;99.90
46732;DHT22;32477;51.474;5.696;2023-05-09T04:10:07;14.60;99.90
46732;DHT22;32477;51.474;5.696;2023-05-09T04:12:33;14.50;99.90
46732;DHT22;32477;51.474;5.696;2023-05-09T04:14:59;14.60;99.90
46732;DHT22;32477;51.474;5.696;2023-05-09T04:17:24;14.50;99.90
46732;DHT22;32477;51.474;5.696;2023-05-09T04:19:50;14.50;99.90
46732;DHT22;32477;51.474;5.696;2023-05-09T04:22:16;14.50;99.90
46732;DHT22;32477;51.474;5.696;2023-05-09T04:24:41;14.50;99.90
46732;DHT22;32477;51.474;5.696;2023-05-09T04:27:07;14.40;99.90
46732;DHT22;32477;51.474;5.696;2023-05-09T04:29:33;14.40;99.90
46732;DHT22;32477;51.474;5.696;2023-05-09T04:31:59;14.50;99.90
46732;DHT22;32477;51.474;5.696;2023-05-09T04:34:26;14.50;99.90
46732;DHT22;32477;51.474;5.696;2023-05-09T04:36:52;14.50;99.90
46732;DHT22;32477;51.474;5.696;2023-05-09T04:39:18;14.60;99.90
46732;DHT22;32477;51.474;5.696;2023-05-09T04:41:44;14.70;99.90
46732;DHT22;32477;51.474;5.696;2023-05-09T04:44:15;14.70;99.90
46732;DHT22;32477;51.474;5.696;2023-05-09T04:46:41;14.80;99.90
46732;DHT22;32477;51.474;5.696;2023-05-09T04:49:07;14.90;99.90
46732;DHT22;32477;51.474;5.696;2023-05-09T04:51:33;15.00;99.90
46732;DHT22;32477;51.474;5.696;2023-05-09T04:53:59;15.10;99.90
46732;DHT22;32477;51.474;5.696;2023-05-09T04:56:24;15.20;99.90
46732;DHT22;32477;51.474;5.696;2023-05-09T04:58:50;15.20;99.90
46732;DHT22;32477;51.474;5.696;2023-05-09T05:01:17;15.30;99.90
46732;DHT22;32477;51.474;5.696;2023-05-09T05:03:43;15.30;99.90
46732;DHT22;32477;51.474;5.696;2023-05-09T05:06:08;15.30;99.90
46732;DHT22;32477;51.474;5.696;2023-05-09T05:08:34;15.40;99.90
46732;DHT22;32477;51.474;5.696;2023-05-09T05:11:00;15.40;99.90
46732;DHT22;32477;51.474;5.696;2023-05-09T05:13:26;15.40;99.90
46732;DHT22;32477;51.474;5.696;2023-05-09T05:15:51;15.40;99.90
46732;DHT22;32477;51.474;5.696;2023-05-09T05:18:17;15.40;99.90
46732;DHT22;32477;51.474;5.696;2023-05-09T05:20:43;15.40;99.90
46732;DHT22;32477;51.474;5.696;2023-05-09T05:23:09;15.40;99.90
46732;DHT22;32477;51.474;5.696;2023-05-09T05:25:34;15.40;99.90
46732;DHT22;32477;51.474;5.696;2023-05-09T05:28:00;15.40;99.90
46732;DHT22;32477;51.474;5.696;2023-05-09T05:30:26;15.40;99.90
46732;DHT22;32477;51.474;5.696;2023-05-09T05:32:52;15.40;99.90
46732;DHT22;32477;51.474;5.696;2023-05-09T05:35:17;15.40;99.90
46732;DHT22;32477;51.474;5.696;2023-05-09T05:37:46;15.50;99.90
46732;DHT22;32477;51.474;5.696;2023-05-09T05:40:11;15.40;99.90
46732;DHT22;32477;51.474;5.696;2023-05-09T05:42:37;15.50;99.90
46732;DHT22;32477;51.474;5.696;2023-05-09T05:45:03;15.50;99.90
46732;DHT22;32477;51.474;5.696;2023-05-09T05:47:34;15.60;99.90
46732;DHT22;32477;51.474;5.696;2023-05-09T05:50:00;15.70;99.90
46732;DHT22;32477;51.474;5.696;2023-05-09T05:52:26;15.80;99.90
46732;DHT22;32477;51.474;5.696;2023-05-09T05:54:52;16.00;99.90
46732;DHT22;32477;51.474;5.696;2023-05-09T05:57:18;16.10;99.90
46732;DHT22;32477;51.474;5.696;2023-05-09T05:59:48;16.30;99.90
46732;DHT22;32477;51.474;5.696;2023-05-09T06:02:17;16.30;99.90
46732;DHT22;32477;51.474;5.696;2023-05-09T06:04:43;16.40;99.90
46732;DHT22;32477;51.474;5.696;2023-05-09T06:07:10;16.50;99.90
46732;DHT22;32477;51.474;5.696;2023-05-09T06:09:36;16.80;99.90
46732;DHT22;32477;51.474;5.696;2023-05-09T06:12:01;16.70;99.90
46732;DHT22;32477;51.474;5.696;2023-05-09T06:14:27;16.80;99.90
46732;DHT22;32477;51.474;5.696;2023-05-09T06:16:53;16.90;99.90
46732;DHT22;32477;51.474;5.696;2023-05-09T06:19:18;16.90;99.90
46732;DHT22;32477;51.474;5.696;2023-05-09T06:21:44;17.00;99.90
46732;DHT22;32477;51.474;5.696;2023-05-09T06:24:10;17.00;99.90
46732;DHT22;32477;51.474;5.696;2023-05-09T06:26:35;17.20;99.90
46732;DHT22;32477;51.474;5.696;2023-05-09T06:29:02;17.50;99.90
46732;DHT22;32477;51.474;5.696;2023-05-09T06:31:28;17.70;99.90
46732;DHT22;32477;51.474;5.696;2023-05-09T06:33:54;18.10;99.90
46732;DHT22;32477;51.474;5.696;2023-05-09T06:36:19;18.50;99.90
46732;DHT22;32477;51.474;5.696;2023-05-09T06:38:45;19.00;99.90
46732;DHT22;32477;51.474;5.696;2023-05-09T06:41:11;19.40;99.90
46732;DHT22;32477;51.474;5.696;2023-05-09T06:43:36;19.50;99.90
46732;DHT22;32477;51.474;5.696;2023-05-09T06:46:02;19.40;99.90
46732;DHT22;32477;51.474;5.696;2023-05-09T06:48:28;19.40;99.90
46732;DHT22;32477;51.474;5.696;2023-05-09T06:50:53;19.20;99.90
46732;DHT22;32477;51.474;5.696;2023-05-09T06:53:19;19.20;99.90
46732;DHT22;32477;51.474;5.696;2023-05-09T06:55:45;18.90;99.90
46732;DHT22;32477;51.474;5.696;2023-05-09T06:58:13;18.60;99.90
46732;DHT22;32477;51.474;5.696;2023-05-09T07:00:39;18.40;99.90
46732;DHT22;32477;51.474;5.696;2023-05-09T07:03:07;18.30;99.90
46732;DHT22;32477;51.474;5.696;2023-05-09T07:05:33;18.20;99.90
46732;DHT22;32477;51.474;5.696;2023-05-09T07:07:59;18.10;99.90
46732;DHT22;32477;51.474;5.696;2023-05-09T07:10:25;18.00;99.90
46732;DHT22;32477;51.474;5.696;2023-05-09T07:12:51;18.00;99.90
46732;DHT22;32477;51.474;5.696;2023-05-09T07:15:16;18.00;99.90
46732;DHT22;32477;51.474;5.696;2023-05-09T07:17:42;18.00;99.90
46732;DHT22;32477;51.474;5.696;2023-05-09T07:20:08;18.10;99.90
46732;DHT22;32477;51.474;5.696;2023-05-09T07:22:34;18.10;99.90
46732;DHT22;32477;51.474;5.696;2023-05-09T07:24:59;18.10;99.90
46732;DHT22;32477;51.474;5.696;2023-05-09T07:27:25;18.10;99.90
46732;DHT22;32477;51.474;5.696;2023-05-09T07:29:51;18.10;99.90
46732;DHT22;32477;51.474;5.696;2023-05-09T07:32:19;18.00;99.90
46732;DHT22;32477;51.474;5.696;2023-05-09T07:34:45;18.10;99.90
46732;DHT22;32477;51.474;5.696;2023-05-09T07:37:11;18.20;99.90
46732;DHT22;32477;51.474;5.696;2023-05-09T07:39:36;18.20;99.90
46732;DHT22;32477;51.474;5.696;2023-05-09T07:42:02;18.30;99.90
46732;DHT22;32477;51.474;5.696;2023-05-09T07:44:28;18.30;99.90
46732;DHT22;32477;51.474;5.696;2023-05-09T07:46:53;18.40;99.90
46732;DHT22;32477;51.474;5.696;2023-05-09T07:49:20;18.50;99.90
46732;DHT22;32477;51.474;5.696;2023-05-09T07:51:46;18.40;99.90
46732;DHT22;32477;51.474;5.696;2023-05-09T07:54:12;18.30;99.90
46732;DHT22;32477;51.474;5.696;2023-05-09T07:56:38;18.00;99.90
46732;DHT22;32477;51.474;5.696;2023-05-09T07:59:03;17.80;99.90
46732;DHT22;32477;51.474;5.696;2023-05-09T08:01:29;17.80;99.90
46732;DHT22;32477;51.474;5.696;2023-05-09T08:03:55;17.80;99.90
46732;DHT22;32477;51.474;5.696;2023-05-09T08:06:20;17.80;99.90
46732;DHT22;32477;51.474;5.696;2023-05-09T08:08:46;17.90;99.90
46732;DHT22;32477;51.474;5.696;2023-05-09T08:11:12;18.10;99.90
46732;DHT22;32477;51.474;5.696;2023-05-09T08:13:37;18.20;99.90
46732;DHT22;32477;51.474;5.696;2023-05-09T08:16:03;18.50;99.90
46732;DHT22;32477;51.474;5.696;2023-05-09T08:18:29;18.70;99.90
46732;DHT22;32477;51.474;5.696;2023-05-09T08:20:54;18.60;99.90
46732;DHT22;32477;51.474;5.696;2023-05-09T08:23:20;18.60;99.90
46732;DHT22;32477;51.474;5.696;2023-05-09T08:25:46;18.60;99.90
46732;DHT22;32477;51.474;5.696;2023-05-09T08:28:11;18.80;99.90
46732;DHT22;32477;51.474;5.696;2023-05-09T08:30:37;18.90;99.90
46732;DHT22;32477;51.474;5.696;2023-05-09T08:33:02;19.00;99.90
46732;DHT22;32477;51.474;5.696;2023-05-09T08:35:28;19.10;99.90
46732;DHT22;32477;51.474;5.696;2023-05-09T08:37:54;19.00;99.90
46732;DHT22;32477;51.474;5.696;2023-05-09T08:40:19;18.80;99.90
46732;DHT22;32477;51.474;5.696;2023-05-09T08:42:47;18.60;99.90
46732;DHT22;32477;51.474;5.696;2023-05-09T08:45:15;18.30;99.90
46732;DHT22;32477;51.474;5.696;2023-05-09T08:47:43;18.20;99.90
46732;DHT22;32477;51.474;5.696;2023-05-09T08:50:10;18.00;99.90
46732;DHT22;32477;51.474;5.696;2023-05-09T08:52:36;18.00;99.90
46732;DHT22;32477;51.474;5.696;2023-05-09T08:55:02;18.00;99.90
46732;DHT22;32477;51.474;5.696;2023-05-09T08:57:32;18.10;99.90
46732;DHT22;32477;51.474;5.696;2023-05-09T09:00:01;18.20;99.90
46732;DHT22;32477;51.474;5.696;2023-05-09T09:02:28;18.50;99.90
46732;DHT22;32477;51.474;5.696;2023-05-09T09:04:54;18.40;99.90
46732;DHT22;32477;51.474;5.696;2023-05-09T09:07:20;18.20;99.90
46732;DHT22;32477;51.474;5.696;2023-05-09T09:09:47;18.00;99.90
46732;DHT22;32477;51.474;5.696;2023-05-09T09:12:15;17.90;99.90
46732;DHT22;32477;51.474;5.696;2023-05-09T09:14:45;17.90;99.90
46732;DHT22;32477;51.474;5.696;2023-05-09T09:17:15;17.80;99.90
46732;DHT22;32477;51.474;5.696;2023-05-09T09:19:43;17.80;99.90
46732;DHT22;32477;51.474;5.696;2023-05-09T09:22:12;18.00;99.90
46732;DHT22;32477;51.474;5.696;2023-05-09T09:24:39;18.20;99.90
46732;DHT22;32477;51.474;5.696;2023-05-09T09:27:06;18.40;99.90
46732;DHT22;32477;51.474;5.696;2023-05-09T09:29:32;18.40;99.90
46732;DHT22;32477;51.474;5.696;2023-05-09T09:32:01;18.00;99.90
46732;DHT22;32477;51.474;5.696;2023-05-09T09:34:27;17.60;99.90
46732;DHT22;32477;51.474;5.696;2023-05-09T09:36:53;17.40;99.90
46732;DHT22;32477;51.474;5.696;2023-05-09T09:39:19;17.20;99.90
46732;DHT22;32477;51.474;5.696;2023-05-09T09:41:46;17.00;99.90
46732;DHT22;32477;51.474;5.696;2023-05-09T09:44:14;16.80;99.90
46732;DHT22;32477;51.474;5.696;2023-05-09T09:49:14;16.40;99.90
46732;DHT22;32477;51.474;5.696;2023-05-09T09:51:40;16.30;99.90
46732;DHT22;32477;51.474;5.696;2023-05-09T09:54:08;16.10;99.90
46732;DHT22;32477;51.474;5.696;2023-05-09T09:56:47;15.90;99.90
46732;DHT22;32477;51.474;5.696;2023-05-09T09:59:15;15.90;99.90
46732;DHT22;32477;51.474;5.696;2023-05-09T10:02:03;16.00;99.90
46732;DHT22;32477;51.474;5.696;2023-05-09T10:04:34;16.00;99.90
46732;DHT22;32477;51.474;5.696;2023-05-09T10:07:01;16.00;99.90
46732;DHT22;32477;51.474;5.696;2023-05-09T10:09:30;15.90;99.90
46732;DHT22;32477;51.474;5.696;2023-05-09T10:12:02;16.00;99.90
46732;DHT22;32477;51.474;5.696;2023-05-09T10:14:30;16.00;99.90
46732;DHT22;32477;51.474;5.696;2023-05-09T10:16:56;15.90;99.90
46732;DHT22;32477;51.474;5.696;2023-05-09T10:19:24;15.80;99.90
46732;DHT22;32477;51.474;5.696;2023-05-09T10:21:58;15.80;99.90
46732;DHT22;32477;51.474;5.696;2023-05-09T10:27:11;15.70;99.90
46732;DHT22;32477;51.474;5.696;2023-05-09T10:29:43;15.50;99.90
46732;DHT22;32477;51.474;5.696;2023-05-09T10:32:51;15.50;99.90
46732;DHT22;32477;51.474;5.696;2023-05-09T10:35:18;15.20;99.90
46732;DHT22;32477;51.474;5.696;2023-05-09T10:37:44;15.10;99.90
46732;DHT22;32477;51.474;5.696;2023-05-09T10:40:10;15.00;99.90
46732;DHT22;32477;51.474;5.696;2023-05-09T10:42:43;14.90;99.90
46732;DHT22;32477;51.474;5.696;2023-05-09T10:45:10;14.90;99.90
46732;DHT22;32477;51.474;5.696;2023-05-09T10:47:37;14.90;99.90
46732;DHT22;32477;51.474;5.696;2023-05-09T10:50:06;14.90;99.90
46732;DHT22;32477;51.474;5.696;2023-05-09T10:52:32;14.90;99.90
46732;DHT22;32477;51.474;5.696;2023-05-09T10:55:01;14.90;99.90
46732;DHT22;32477;51.474;5.696;2023-05-09T10:57:29;14.90;99.90
46732;DHT22;32477;51.474;5.696;2023-05-09T10:59:56;14.90;99.90
46732;DHT22;32477;51.474;5.696;2023-05-09T11:02:22;15.00;99.90
46732;DHT22;32477;51.474;5.696;2023-05-09T11:05:13;15.10;99.90
46732;DHT22;32477;51.474;5.696;2023-05-09T11:07:39;15.40;99.90
46732;DHT22;32477;51.474;5.696;2023-05-09T11:10:17;15.50;99.90
46732;DHT22;32477;51.474;5.696;2023-05-09T11:12:56;15.60;99.90
46732;DHT22;32477;51.474;5.696;2023-05-09T11:15:22;15.70;99.90
46732;DHT22;32477;51.474;5.696;2023-05-09T11:18:05;15.70;99.90
46732;DHT22;32477;51.474;5.696;2023-05-09T11:20:33;15.70;99.90
46732;DHT22;32477;51.474;5.696;2023-05-09T11:23:05;15.50;99.90
46732;DHT22;32477;51.474;5.696;2023-05-09T11:25:33;15.40;99.90
46732;DHT22;32477;51.474;5.696;2023-05-09T11:28:01;15.40;99.90
46732;DHT22;32477;51.474;5.696;2023-05-09T11:30:41;15.30;99.90
46732;DHT22;32477;51.474;5.696;2023-05-09T11:33:24;15.20;99.90
46732;DHT22;32477;51.474;5.696;2023-05-09T11:39:06;15.30;99.90
46732;DHT22;32477;51.474;5.696;2023-05-09T11:41:45;15.40;99.90
46732;DHT22;32477;51.474;5.696;2023-05-09T11:44:16;15.30;99.90
46732;DHT22;32477;51.474;5.696;2023-05-09T11:46:43;15.40;99.90
46732;DHT22;32477;51.474;5.696;2023-05-09T11:49:08;15.30;99.90
46732;DHT22;32477;51.474;5.696;2023-05-09T11:51:38;15.30;99.90
46732;DHT22;32477;51.474;5.696;2023-05-09T11:54:05;15.30;99.90
46732;DHT22;32477;51.474;5.696;2023-05-09T11:56:36;15.40;99.90
46732;DHT22;32477;51.474;5.696;2023-05-09T11:59:02;15.40;99.90
46732;DHT22;32477;51.474;5.696;2023-05-09T12:01:28;15.50;99.90
46732;DHT22;32477;51.474;5.696;2023-05-09T12:03:55;15.50;99.90
46732;DHT22;32477;51.474;5.696;2023-05-09T12:06:21;15.60;99.90
46732;DHT22;32477;51.474;5.696;2023-05-09T12:08:47;15.70;99.90
46732;DHT22;32477;51.474;5.696;2023-05-09T12:11:14;15.80;99.90
46732;DHT22;32477;51.474;5.696;2023-05-09T12:13:47;15.70;99.90
46732;DHT22;32477;51.474;5.696;2023-05-09T12:16:13;15.60;99.90
46732;DHT22;32477;51.474;5.696;2023-05-09T12:18:44;15.50;99.90
46732;DHT22;32477;51.474;5.696;2023-05-09T12:21:10;15.40;99.90
46732;DHT22;32477;51.474;5.696;2023-05-09T12:23:36;15.30;99.90
46732;DHT22;32477;51.474;5.696;2023-05-09T12:26:02;15.20;99.90
46732;DHT22;32477;51.474;5.696;2023-05-09T12:28:28;15.10;99.90
46732;DHT22;32477;51.474;5.696;2023-05-09T12:30:54;15.10;99.90
46732;DHT22;32477;51.474;5.696;2023-05-09T12:33:19;15.10;99.90
46732;DHT22;32477;51.474;5.696;2023-05-09T12:35:47;15.10;99.90
46732;DHT22;32477;51.474;5.696;2023-05-09T12:38:14;15.00;99.90
46732;DHT22;32477;51.474;5.696;2023-05-09T12:40:47;15.00;99.90
46732;DHT22;32477;51.474;5.696;2023-05-09T12:43:13;14.90;99.90
46732;DHT22;32477;51.474;5.696;2023-05-09T12:45:38;14.90;99.90
46732;DHT22;32477;51.474;5.696;2023-05-09T12:48:07;14.80;99.90
46732;DHT22;32477;51.474;5.696;2023-05-09T12:50:34;14.80;99.90
46732;DHT22;32477;51.474;5.696;2023-05-09T12:53:01;14.90;99.90
46732;DHT22;32477;51.474;5.696;2023-05-09T12:55:29;14.90;99.90
46732;DHT22;32477;51.474;5.696;2023-05-09T12:58:01;15.00;99.90
46732;DHT22;32477;51.474;5.696;2023-05-09T13:00:27;15.00;99.90
46732;DHT22;32477;51.474;5.696;2023-05-09T13:02:52;15.00;99.90
46732;DHT22;32477;51.474;5.696;2023-05-09T13:05:20;15.10;99.90
46732;DHT22;32477;51.474;5.696;2023-05-09T13:07:48;15.10;99.90
46732;DHT22;32477;51.474;5.696;2023-05-09T13:10:18;15.20;99.90
46732;DHT22;32477;51.474;5.696;2023-05-09T13:12:46;15.20;99.90
46732;DHT22;32477;51.474;5.696;2023-05-09T13:15:14;15.30;99.90
46732;DHT22;32477;51.474;5.696;2023-05-09T13:17:40;15.30;99.90
46732;DHT22;32477;51.474;5.696;2023-05-09T13:20:07;15.30;99.90
46732;DHT22;32477;51.474;5.696;2023-05-09T13:22:33;15.30;99.90
46732;DHT22;32477;51.474;5.696;2023-05-09T13:24:58;15.40;99.90
46732;DHT22;32477;51.474;5.696;2023-05-09T13:27:24;15.40;99.90
46732;DHT22;32477;51.474;5.696;2023-05-09T13:29:52;15.40;99.90
46732;DHT22;32477;51.474;5.696;2023-05-09T13:32:18;15.40;99.90
46732;DHT22;32477;51.474;5.696;2023-05-09T13:34:44;15.50;99.90
46732;DHT22;32477;51.474;5.696;2023-05-09T13:37:09;15.50;99.90
46732;DHT22;32477;51.474;5.696;2023-05-09T13:39:35;15.50;99.90
46732;DHT22;32477;51.474;5.696;2023-05-09T13:42:01;15.50;99.90
46732;DHT22;32477;51.474;5.696;2023-05-09T13:44:26;15.60;99.90
46732;DHT22;32477;51.474;5.696;2023-05-09T13:46:53;15.60;99.90
46732;DHT22;32477;51.474;5.696;2023-05-09T13:49:19;15.50;99.90
46732;DHT22;32477;51.474;5.696;2023-05-09T13:51:45;15.40;99.90
46732;DHT22;32477;51.474;5.696;2023-05-09T13:54:10;15.60;99.90
46732;DHT22;32477;51.474;5.696;2023-05-09T13:56:41;15.60;99.90
46732;DHT22;32477;51.474;5.696;2023-05-09T13:59:07;15.70;99.90
46732;DHT22;32477;51.474;5.696;2023-05-09T14:01:33;15.80;99.90
46732;DHT22;32477;51.474;5.696;2023-05-09T14:03:59;15.70;99.90
46732;DHT22;32477;51.474;5.696;2023-05-09T14:06:26;15.60;99.90
46732;DHT22;32477;51.474;5.696;2023-05-09T14:08:51;15.50;99.90
46732;DHT22;32477;51.474;5.696;2023-05-09T14:11:17;15.40;99.90
46732;DHT22;32477;51.474;5.696;2023-05-09T14:13:43;15.40;99.90
46732;DHT22;32477;51.474;5.696;2023-05-09T14:16:09;15.50;99.90
46732;DHT22;32477;51.474;5.696;2023-05-09T14:18:34;15.50;99.90
46732;DHT22;32477;51.474;5.696;2023-05-09T14:21:00;15.50;99.90
46732;DHT22;32477;51.474;5.696;2023-05-09T14:23:26;15.50;99.90
46732;DHT22;32477;51.474;5.696;2023-05-09T14:25:51;15.50;99.90
46732;DHT22;32477;51.474;5.696;2023-05-09T14:28:17;15.50;99.90
46732;DHT22;32477;51.474;5.696;2023-05-09T14:30:43;15.50;99.90
46732;DHT22;32477;51.474;5.696;2023-05-09T14:33:09;15.50;99.90
46732;DHT22;32477;51.474;5.696;2023-05-09T14:35:34;15.40;99.90
46732;DHT22;32477;51.474;5.696;2023-05-09T14:38:00;15.50;99.90
46732;DHT22;32477;51.474;5.696;2023-05-09T14:40:26;15.40;99.90
46732;DHT22;32477;51.474;5.696;2023-05-09T14:42:59;15.40;99.90
46732;DHT22;32477;51.474;5.696;2023-05-09T14:45:31;15.60;99.90
46732;DHT22;32477;51.474;5.696;2023-05-09T14:48:00;15.70;99.90
46732;DHT22;32477;51.474;5.696;2023-05-09T14:50:27;15.60;99.90
46732;DHT22;32477;51.474;5.696;2023-05-09T14:52:53;15.40;99.90
46732;DHT22;32477;51.474;5.696;2023-05-09T14:55:20;15.40;99.90
46732;DHT22;32477;51.474;5.696;2023-05-09T14:57:48;15.40;99.90
46732;DHT22;32477;51.474;5.696;2023-05-09T15:00:14;15.40;99.90
46732;DHT22;32477;51.474;5.696;2023-05-09T15:02:40;15.30;99.90
46732;DHT22;32477;51.474;5.696;2023-05-09T15:05:07;15.40;99.90
46732;DHT22;32477;51.474;5.696;2023-05-09T15:07:33;15.40;99.90
46732;DHT22;32477;51.474;5.696;2023-05-09T15:09:59;15.30;99.90
46732;DHT22;32477;51.474;5.696;2023-05-09T15:12:27;15.30;99.90
46732;DHT22;32477;51.474;5.696;2023-05-09T15:14:53;15.30;99.90
46732;DHT22;32477;51.474;5.696;2023-05-09T15:17:20;15.30;99.90
46732;DHT22;32477;51.474;5.696;2023-05-09T15:19:47;15.30;99.90
46732;DHT22;32477;51.474;5.696;2023-05-09T15:22:12;15.30;99.90
46732;DHT22;32477;51.474;5.696;2023-05-09T15:24:38;15.40;99.90
46732;DHT22;32477;51.474;5.696;2023-05-09T15:27:07;15.30;99.90
46732;DHT22;32477;51.474;5.696;2023-05-09T15:29:33;15.40;99.90
46732;DHT22;32477;51.474;5.696;2023-05-09T15:31:58;15.30;99.90
46732;DHT22;32477;51.474;5.696;2023-05-09T15:34:24;15.40;99.90
46732;DHT22;32477;51.474;5.696;2023-05-09T15:36:50;15.30;99.90
46732;DHT22;32477;51.474;5.696;2023-05-09T15:39:16;15.20;99.90
46732;DHT22;32477;51.474;5.696;2023-05-09T15:41:41;15.10;99.90
46732;DHT22;32477;51.474;5.696;2023-05-09T15:44:07;15.00;99.90